sensor_id;sensor_type;location;lat;lon;timestamp;P1;durP1;ratioP1;P2;durP2;ratioP2
47539;SDS011;33280;52.152;21.052;2023-02-28T00:01:08;12.57;;;7.20;;
47539;SDS011;33280;52.152;21.052;2023-02-28T00:03:35;13.03;;;7.20;;
47539;SDS011;33280;52.152;21.052;2023-02-28T00:06:03;13.90;;;7.30;;
47539;SDS011;33280;52.152;21.052;2023-02-28T00:08:31;17.87;;;8.10;;
47539;SDS011;33280;52.152;21.052;2023-02-28T00:11:02;15.53;;;7.70;;
47539;SDS011;33280;52.152;21.052;2023-02-28T00:13:29;16.07;;;8.00;;
47539;SDS011;33280;52.152;21.052;2023-02-28T00:16:03;16.17;;;8.93;;
47539;SDS011;33280;52.152;21.052;2023-02-28T00:18:32;18.00;;;8.30;;
47539;SDS011;33280;52.152;21.052;2023-02-28T00:20:59;15.93;;;8.27;;
47539;SDS011;33280;52.152;21.052;2023-02-28T00:23:27;18.97;;;8.87;;
47539;SDS011;33280;52.152;21.052;2023-02-28T00:25:55;15.83;;;8.40;;
47539;SDS011;33280;52.152;21.052;2023-02-28T00:28:22;18.93;;;8.57;;
47539;SDS011;33280;52.152;21.052;2023-02-28T00:30:49;16.47;;;8.87;;
47539;SDS011;33280;52.152;21.052;2023-02-28T00:33:16;21.80;;;10.17;;
47539;SDS011;33280;52.152;21.052;2023-02-28T00:35:43;19.90;;;9.87;;
47539;SDS011;33280;52.152;21.052;2023-02-28T00:38:13;19.60;;;9.83;;
47539;SDS011;33280;52.152;21.052;2023-02-28T00:40:40;22.93;;;10.70;;
47539;SDS011;33280;52.152;21.052;2023-02-28T00:43:07;18.30;;;10.40;;
47539;SDS011;33280;52.152;21.052;2023-02-28T00:45:34;23.50;;;10.87;;
47539;SDS011;33280;52.152;21.052;2023-02-28T00:48:01;23.37;;;11.43;;
47539;SDS011;33280;52.152;21.052;2023-02-28T00:50:28;22.33;;;11.10;;
47539;SDS011;33280;52.152;21.052;2023-02-28T00:52:55;24.90;;;11.80;;
47539;SDS011;33280;52.152;21.052;2023-02-28T00:55:21;23.80;;;11.83;;
47539;SDS011;33280;52.152;21.052;2023-02-28T00:57:48;23.77;;;12.27;;
47539;SDS011;33280;52.152;21.052;2023-02-28T01:00:15;22.83;;;12.03;;
47539;SDS011;33280;52.152;21.052;2023-02-28T01:02:42;26.80;;;12.27;;
47539;SDS011;33280;52.152;21.052;2023-02-28T01:05:09;22.17;;;11.67;;
47539;SDS011;33280;52.152;21.052;2023-02-28T01:07:36;24.37;;;12.17;;
47539;SDS011;33280;52.152;21.052;2023-02-28T01:10:03;25.23;;;13.00;;
47539;SDS011;33280;52.152;21.052;2023-02-28T01:12:30;25.77;;;12.73;;
47539;SDS011;33280;52.152;21.052;2023-02-28T01:14:57;30.73;;;13.40;;
47539;SDS011;33280;52.152;21.052;2023-02-28T01:17:24;29.30;;;13.97;;
47539;SDS011;33280;52.152;21.052;2023-02-28T01:19:53;30.40;;;14.00;;
47539;SDS011;33280;52.152;21.052;2023-02-28T01:22:21;30.97;;;15.00;;
47539;SDS011;33280;52.152;21.052;2023-02-28T01:24:48;26.80;;;12.97;;
47539;SDS011;33280;52.152;21.052;2023-02-28T01:27:15;31.90;;;14.40;;
47539;SDS011;33280;52.152;21.052;2023-02-28T01:29:42;30.37;;;13.87;;
47539;SDS011;33280;52.152;21.052;2023-02-28T01:32:09;28.97;;;13.93;;
47539;SDS011;33280;52.152;21.052;2023-02-28T01:34:36;29.87;;;14.33;;
47539;SDS011;33280;52.152;21.052;2023-02-28T01:37:03;30.03;;;14.50;;
47539;SDS011;33280;52.152;21.052;2023-02-28T01:39:30;30.23;;;13.73;;
47539;SDS011;33280;52.152;21.052;2023-02-28T01:41:57;28.80;;;14.47;;
47539;SDS011;33280;52.152;21.052;2023-02-28T01:47:30;34.73;;;15.27;;
47539;SDS011;33280;52.152;21.052;2023-02-28T01:50:00;28.87;;;13.67;;
47539;SDS011;33280;52.152;21.052;2023-02-28T01:52:30;30.83;;;14.00;;
47539;SDS011;33280;52.152;21.052;2023-02-28T01:54:59;31.67;;;14.67;;
47539;SDS011;33280;52.152;21.052;2023-02-28T01:57:29;28.23;;;14.13;;
47539;SDS011;33280;52.152;21.052;2023-02-28T02:02:35;29.17;;;13.60;;
47539;SDS011;33280;52.152;21.052;2023-02-28T02:05:05;32.53;;;14.83;;
47539;SDS011;33280;52.152;21.052;2023-02-28T02:07:37;29.57;;;14.47;;
47539;SDS011;33280;52.152;21.052;2023-02-28T02:15:51;30.50;;;14.40;;
47539;SDS011;33280;52.152;21.052;2023-02-28T02:18:41;27.40;;;13.37;;
47539;SDS011;33280;52.152;21.052;2023-02-28T02:21:22;33.07;;;14.70;;
47539;SDS011;33280;52.152;21.052;2023-02-28T02:38:18;33.67;;;14.93;;
47539;SDS011;33280;52.152;21.052;2023-02-28T02:41:06;31.03;;;14.20;;
47539;SDS011;33280;52.152;21.052;2023-02-28T02:43:46;33.60;;;14.50;;
47539;SDS011;33280;52.152;21.052;2023-02-28T02:46:19;33.77;;;14.50;;
47539;SDS011;33280;52.152;21.052;2023-02-28T02:48:48;28.27;;;13.93;;
47539;SDS011;33280;52.152;21.052;2023-02-28T02:51:17;30.17;;;13.83;;
47539;SDS011;33280;52.152;21.052;2023-02-28T02:54:06;28.23;;;13.63;;
47539;SDS011;33280;52.152;21.052;2023-02-28T02:56:37;29.43;;;13.53;;
47539;SDS011;33280;52.152;21.052;2023-02-28T02:59:07;25.13;;;13.20;;
47539;SDS011;33280;52.152;21.052;2023-02-28T03:01:37;28.83;;;13.27;;
47539;SDS011;33280;52.152;21.052;2023-02-28T03:04:11;27.57;;;13.83;;
47539;SDS011;33280;52.152;21.052;2023-02-28T03:06:42;27.97;;;13.57;;
47539;SDS011;33280;52.152;21.052;2023-02-28T03:09:09;27.20;;;12.27;;
47539;SDS011;33280;52.152;21.052;2023-02-28T03:11:37;25.10;;;12.17;;
47539;SDS011;33280;52.152;21.052;2023-02-28T03:17:02;26.67;;;11.87;;
47539;SDS011;33280;52.152;21.052;2023-02-28T03:20:05;26.07;;;12.57;;
47539;SDS011;33280;52.152;21.052;2023-02-28T03:23:00;24.63;;;12.47;;
47539;SDS011;33280;52.152;21.052;2023-02-28T03:25:38;21.40;;;11.10;;
47539;SDS011;33280;52.152;21.052;2023-02-28T03:28:34;24.17;;;10.90;;
47539;SDS011;33280;52.152;21.052;2023-02-28T03:34:01;19.33;;;10.90;;
47539;SDS011;33280;52.152;21.052;2023-02-28T03:36:39;20.30;;;10.07;;
47539;SDS011;33280;52.152;21.052;2023-02-28T03:39:20;20.43;;;10.63;;
47539;SDS011;33280;52.152;21.052;2023-02-28T03:41:59;23.10;;;10.80;;
47539;SDS011;33280;52.152;21.052;2023-02-28T03:44:32;20.00;;;10.30;;
47539;SDS011;33280;52.152;21.052;2023-02-28T03:47:05;19.13;;;10.03;;
47539;SDS011;33280;52.152;21.052;2023-02-28T03:52:15;18.50;;;10.20;;
47539;SDS011;33280;52.152;21.052;2023-02-28T03:54:45;23.53;;;10.70;;
47539;SDS011;33280;52.152;21.052;2023-02-28T03:57:23;19.27;;;10.07;;
47539;SDS011;33280;52.152;21.052;2023-02-28T04:00:05;20.60;;;10.73;;
47539;SDS011;33280;52.152;21.052;2023-02-28T04:02:36;19.97;;;10.43;;
47539;SDS011;33280;52.152;21.052;2023-02-28T04:05:03;21.63;;;10.20;;
47539;SDS011;33280;52.152;21.052;2023-02-28T04:07:30;23.77;;;11.43;;
47539;SDS011;33280;52.152;21.052;2023-02-28T04:09:57;19.13;;;9.93;;
47539;SDS011;33280;52.152;21.052;2023-02-28T04:12:25;19.40;;;9.77;;
47539;SDS011;33280;52.152;21.052;2023-02-28T04:14:52;20.87;;;10.17;;
47539;SDS011;33280;52.152;21.052;2023-02-28T04:17:19;22.93;;;10.80;;
47539;SDS011;33280;52.152;21.052;2023-02-28T04:19:45;21.47;;;10.33;;
47539;SDS011;33280;52.152;21.052;2023-02-28T04:22:12;18.60;;;9.93;;
47539;SDS011;33280;52.152;21.052;2023-02-28T04:24:39;20.10;;;10.23;;
47539;SDS011;33280;52.152;21.052;2023-02-28T04:27:08;17.93;;;9.80;;
47539;SDS011;33280;52.152;21.052;2023-02-28T04:29:35;19.20;;;10.63;;
47539;SDS011;33280;52.152;21.052;2023-02-28T04:32:02;21.57;;;10.73;;
47539;SDS011;33280;52.152;21.052;2023-02-28T04:34:35;24.43;;;11.30;;
47539;SDS011;33280;52.152;21.052;2023-02-28T04:37:02;19.50;;;10.23;;
47539;SDS011;33280;52.152;21.052;2023-02-28T04:39:39;23.33;;;10.33;;
47539;SDS011;33280;52.152;21.052;2023-02-28T04:42:07;17.30;;;9.60;;
47539;SDS011;33280;52.152;21.052;2023-02-28T04:44:35;21.47;;;10.53;;
47539;SDS011;33280;52.152;21.052;2023-02-28T04:47:02;22.57;;;11.03;;
47539;SDS011;33280;52.152;21.052;2023-02-28T04:49:29;24.33;;;10.73;;
47539;SDS011;33280;52.152;21.052;2023-02-28T04:51:56;23.27;;;10.83;;
47539;SDS011;33280;52.152;21.052;2023-02-28T04:54:23;21.70;;;10.30;;
47539;SDS011;33280;52.152;21.052;2023-02-28T04:56:51;22.27;;;10.73;;
47539;SDS011;33280;52.152;21.052;2023-02-28T04:59:18;19.60;;;10.60;;
47539;SDS011;33280;52.152;21.052;2023-02-28T05:01:45;21.17;;;10.33;;
47539;SDS011;33280;52.152;21.052;2023-02-28T05:04:13;19.30;;;10.13;;
47539;SDS011;33280;52.152;21.052;2023-02-28T05:06:40;21.27;;;10.30;;
47539;SDS011;33280;52.152;21.052;2023-02-28T05:09:08;17.90;;;9.67;;
47539;SDS011;33280;52.152;21.052;2023-02-28T05:11:38;21.57;;;10.40;;
47539;SDS011;33280;52.152;21.052;2023-02-28T05:14:07;21.00;;;10.43;;
47539;SDS011;33280;52.152;21.052;2023-02-28T05:16:37;20.23;;;9.77;;
47539;SDS011;33280;52.152;21.052;2023-02-28T05:19:05;20.43;;;10.53;;
47539;SDS011;33280;52.152;21.052;2023-02-28T05:21:34;20.53;;;10.27;;
47539;SDS011;33280;52.152;21.052;2023-02-28T05:24:03;20.67;;;10.97;;
47539;SDS011;33280;52.152;21.052;2023-02-28T05:26:35;20.17;;;10.07;;
47539;SDS011;33280;52.152;21.052;2023-02-28T05:29:03;21.57;;;9.90;;
47539;SDS011;33280;52.152;21.052;2023-02-28T05:31:31;19.50;;;10.43;;
47539;SDS011;33280;52.152;21.052;2023-02-28T05:33:59;20.90;;;9.70;;
47539;SDS011;33280;52.152;21.052;2023-02-28T05:36:26;20.77;;;10.27;;
47539;SDS011;33280;52.152;21.052;2023-02-28T05:38:53;22.67;;;10.77;;
47539;SDS011;33280;52.152;21.052;2023-02-28T05:41:21;26.07;;;11.03;;
47539;SDS011;33280;52.152;21.052;2023-02-28T05:43:48;23.97;;;11.10;;
47539;SDS011;33280;52.152;21.052;2023-02-28T05:46:15;25.03;;;11.40;;
47539;SDS011;33280;52.152;21.052;2023-02-28T05:48:45;24.70;;;11.83;;
47539;SDS011;33280;52.152;21.052;2023-02-28T05:51:13;27.20;;;11.50;;
47539;SDS011;33280;52.152;21.052;2023-02-28T05:53:40;23.00;;;10.63;;
47539;SDS011;33280;52.152;21.052;2023-02-28T05:56:07;25.00;;;11.33;;
47539;SDS011;33280;52.152;21.052;2023-02-28T05:58:34;25.47;;;11.30;;
47539;SDS011;33280;52.152;21.052;2023-02-28T06:01:18;27.47;;;11.67;;
47539;SDS011;33280;52.152;21.052;2023-02-28T06:03:49;23.03;;;11.13;;
47539;SDS011;33280;52.152;21.052;2023-02-28T06:06:16;25.57;;;11.57;;
47539;SDS011;33280;52.152;21.052;2023-02-28T06:08:43;24.67;;;11.57;;
47539;SDS011;33280;52.152;21.052;2023-02-28T06:11:11;26.80;;;12.27;;
47539;SDS011;33280;52.152;21.052;2023-02-28T06:13:38;23.87;;;11.97;;
47539;SDS011;33280;52.152;21.052;2023-02-28T06:16:05;25.10;;;11.70;;
47539;SDS011;33280;52.152;21.052;2023-02-28T06:18:32;24.33;;;11.60;;
47539;SDS011;33280;52.152;21.052;2023-02-28T06:20:59;22.80;;;11.40;;
47539;SDS011;33280;52.152;21.052;2023-02-28T06:23:26;23.93;;;11.47;;
47539;SDS011;33280;52.152;21.052;2023-02-28T06:25:53;25.73;;;11.77;;
47539;SDS011;33280;52.152;21.052;2023-02-28T06:28:25;22.73;;;11.77;;
47539;SDS011;33280;52.152;21.052;2023-02-28T06:30:52;24.17;;;12.63;;
47539;SDS011;33280;52.152;21.052;2023-02-28T06:33:19;27.57;;;12.93;;
47539;SDS011;33280;52.152;21.052;2023-02-28T06:35:46;33.87;;;13.00;;
47539;SDS011;33280;52.152;21.052;2023-02-28T06:38:14;25.00;;;11.90;;
47539;SDS011;33280;52.152;21.052;2023-02-28T06:40:41;30.27;;;13.27;;
47539;SDS011;33280;52.152;21.052;2023-02-28T06:43:08;29.35;;;15.57;;
47539;SDS011;33280;52.152;21.052;2023-02-28T06:45:35;25.70;;;12.40;;
47539;SDS011;33280;52.152;21.052;2023-02-28T06:48:02;25.50;;;12.37;;
47539;SDS011;33280;52.152;21.052;2023-02-28T06:50:29;23.17;;;11.43;;
47539;SDS011;33280;52.152;21.052;2023-02-28T06:52:57;25.23;;;11.67;;
47539;SDS011;33280;52.152;21.052;2023-02-28T06:55:23;22.57;;;10.90;;
47539;SDS011;33280;52.152;21.052;2023-02-28T06:57:50;22.83;;;10.93;;
47539;SDS011;33280;52.152;21.052;2023-02-28T07:00:17;21.07;;;11.20;;
47539;SDS011;33280;52.152;21.052;2023-02-28T07:02:44;21.53;;;10.83;;
47539;SDS011;33280;52.152;21.052;2023-02-28T07:05:11;22.00;;;10.97;;
47539;SDS011;33280;52.152;21.052;2023-02-28T07:07:39;22.53;;;10.73;;
47539;SDS011;33280;52.152;21.052;2023-02-28T07:10:10;24.30;;;11.37;;
47539;SDS011;33280;52.152;21.052;2023-02-28T07:12:37;23.83;;;12.00;;
47539;SDS011;33280;52.152;21.052;2023-02-28T07:15:04;22.60;;;11.47;;
47539;SDS011;33280;52.152;21.052;2023-02-28T07:17:32;26.42;;;12.38;;
47539;SDS011;33280;52.152;21.052;2023-02-28T07:19:59;29.20;;;11.60;;
47539;SDS011;33280;52.152;21.052;2023-02-28T07:22:26;19.13;;;9.80;;
47539;SDS011;33280;52.152;21.052;2023-02-28T07:24:54;17.30;;;8.40;;
47539;SDS011;33280;52.152;21.052;2023-02-28T07:27:21;20.23;;;9.03;;
47539;SDS011;33280;52.152;21.052;2023-02-28T07:29:55;20.57;;;9.33;;
47539;SDS011;33280;52.152;21.052;2023-02-28T07:32:22;21.80;;;8.40;;
47539;SDS011;33280;52.152;21.052;2023-02-28T07:34:49;22.00;;;8.67;;
47539;SDS011;33280;52.152;21.052;2023-02-28T07:37:16;18.53;;;8.60;;
47539;SDS011;33280;52.152;21.052;2023-02-28T07:39:43;14.53;;;7.50;;
47539;SDS011;33280;52.152;21.052;2023-02-28T07:42:10;14.43;;;8.40;;
47539;SDS011;33280;52.152;21.052;2023-02-28T07:44:38;14.70;;;7.70;;
47539;SDS011;33280;52.152;21.052;2023-02-28T07:47:07;16.23;;;7.13;;
47539;SDS011;33280;52.152;21.052;2023-02-28T07:49:36;17.57;;;7.87;;
47539;SDS011;33280;52.152;21.052;2023-02-28T07:52:03;13.53;;;7.33;;
47539;SDS011;33280;52.152;21.052;2023-02-28T07:54:31;17.70;;;7.87;;
47539;SDS011;33280;52.152;21.052;2023-02-28T07:56:59;14.73;;;7.30;;
47539;SDS011;33280;52.152;21.052;2023-02-28T07:59:26;12.20;;;6.63;;
47539;SDS011;33280;52.152;21.052;2023-02-28T08:01:52;12.00;;;6.80;;
47539;SDS011;33280;52.152;21.052;2023-02-28T08:04:19;12.60;;;6.97;;
47539;SDS011;33280;52.152;21.052;2023-02-28T08:06:46;13.70;;;6.50;;
47539;SDS011;33280;52.152;21.052;2023-02-28T08:09:13;11.73;;;6.10;;
47539;SDS011;33280;52.152;21.052;2023-02-28T08:11:40;10.27;;;6.00;;
47539;SDS011;33280;52.152;21.052;2023-02-28T08:14:19;10.80;;;6.47;;
47539;SDS011;33280;52.152;21.052;2023-02-28T08:16:46;11.13;;;6.13;;
47539;SDS011;33280;52.152;21.052;2023-02-28T08:19:13;9.07;;;5.73;;
47539;SDS011;33280;52.152;21.052;2023-02-28T08:21:40;9.07;;;5.63;;
47539;SDS011;33280;52.152;21.052;2023-02-28T08:24:07;10.63;;;5.17;;
47539;SDS011;33280;52.152;21.052;2023-02-28T08:26:34;10.30;;;5.47;;
47539;SDS011;33280;52.152;21.052;2023-02-28T08:29:01;10.70;;;6.03;;
47539;SDS011;33280;52.152;21.052;2023-02-28T08:31:27;11.90;;;6.30;;
47539;SDS011;33280;52.152;21.052;2023-02-28T08:33:55;11.47;;;6.37;;
47539;SDS011;33280;52.152;21.052;2023-02-28T08:36:25;12.73;;;6.57;;
47539;SDS011;33280;52.152;21.052;2023-02-28T08:38:54;12.47;;;6.90;;
47539;SDS011;33280;52.152;21.052;2023-02-28T08:41:22;12.00;;;6.50;;
47539;SDS011;33280;52.152;21.052;2023-02-28T08:43:49;13.33;;;6.77;;
47539;SDS011;33280;52.152;21.052;2023-02-28T08:46:16;12.53;;;6.70;;
47539;SDS011;33280;52.152;21.052;2023-02-28T08:48:43;11.90;;;6.50;;
47539;SDS011;33280;52.152;21.052;2023-02-28T08:51:15;11.33;;;6.20;;
47539;SDS011;33280;52.152;21.052;2023-02-28T08:53:45;11.40;;;6.57;;
47539;SDS011;33280;52.152;21.052;2023-02-28T08:56:12;9.93;;;6.00;;
47539;SDS011;33280;52.152;21.052;2023-02-28T08:58:40;10.10;;;6.33;;
47539;SDS011;33280;52.152;21.052;2023-02-28T09:01:08;10.30;;;5.90;;
47539;SDS011;33280;52.152;21.052;2023-02-28T09:03:38;9.97;;;6.17;;
47539;SDS011;33280;52.152;21.052;2023-02-28T09:06:05;10.40;;;6.00;;
47539;SDS011;33280;52.152;21.052;2023-02-28T09:08:32;9.43;;;6.10;;
47539;SDS011;33280;52.152;21.052;2023-02-28T09:10:59;8.57;;;5.80;;
47539;SDS011;33280;52.152;21.052;2023-02-28T09:13:28;10.53;;;6.10;;
47539;SDS011;33280;52.152;21.052;2023-02-28T09:15:59;10.30;;;6.50;;
47539;SDS011;33280;52.152;21.052;2023-02-28T09:18:28;11.43;;;6.13;;
47539;SDS011;33280;52.152;21.052;2023-02-28T09:20:55;12.33;;;5.97;;
47539;SDS011;33280;52.152;21.052;2023-02-28T09:23:23;9.63;;;6.57;;
47539;SDS011;33280;52.152;21.052;2023-02-28T09:25:51;9.80;;;5.77;;
47539;SDS011;33280;52.152;21.052;2023-02-28T09:28:20;10.60;;;6.20;;
47539;SDS011;33280;52.152;21.052;2023-02-28T09:30:49;11.10;;;6.53;;
47539;SDS011;33280;52.152;21.052;2023-02-28T09:33:17;10.00;;;6.50;;
47539;SDS011;33280;52.152;21.052;2023-02-28T09:35:50;10.93;;;6.13;;
47539;SDS011;33280;52.152;21.052;2023-02-28T09:38:25;9.93;;;6.00;;
47539;SDS011;33280;52.152;21.052;2023-02-28T09:40:53;9.93;;;6.10;;
47539;SDS011;33280;52.152;21.052;2023-02-28T09:43:30;11.73;;;6.23;;
47539;SDS011;33280;52.152;21.052;2023-02-28T09:46:05;12.80;;;6.53;;
47539;SDS011;33280;52.152;21.052;2023-02-28T09:48:37;10.47;;;6.50;;
47539;SDS011;33280;52.152;21.052;2023-02-28T09:51:14;9.23;;;6.00;;
47539;SDS011;33280;52.152;21.052;2023-02-28T09:54:01;11.00;;;6.57;;
47539;SDS011;33280;52.152;21.052;2023-02-28T09:56:39;10.07;;;6.40;;
47539;SDS011;33280;52.152;21.052;2023-02-28T09:59:17;11.33;;;6.10;;
47539;SDS011;33280;52.152;21.052;2023-02-28T10:04:51;11.47;;;6.10;;
47539;SDS011;33280;52.152;21.052;2023-02-28T10:10:05;8.97;;;6.00;;
47539;SDS011;33280;52.152;21.052;2023-02-28T10:12:45;12.93;;;6.90;;
47539;SDS011;33280;52.152;21.052;2023-02-28T10:15:14;12.57;;;6.57;;
47539;SDS011;33280;52.152;21.052;2023-02-28T10:17:43;11.70;;;5.97;;
47539;SDS011;33280;52.152;21.052;2023-02-28T10:20:35;12.70;;;6.70;;
47539;SDS011;33280;52.152;21.052;2023-02-28T10:26:05;12.00;;;6.57;;
47539;SDS011;33280;52.152;21.052;2023-02-28T10:28:38;10.03;;;6.20;;
47539;SDS011;33280;52.152;21.052;2023-02-28T10:31:06;11.73;;;6.80;;
47539;SDS011;33280;52.152;21.052;2023-02-28T10:33:40;9.73;;;6.10;;
47539;SDS011;33280;52.152;21.052;2023-02-28T10:36:08;11.13;;;6.67;;
47539;SDS011;33280;52.152;21.052;2023-02-28T10:38:40;12.57;;;6.77;;
47539;SDS011;33280;52.152;21.052;2023-02-28T10:41:35;12.23;;;6.77;;
47539;SDS011;33280;52.152;21.052;2023-02-28T10:44:16;12.33;;;6.93;;
47539;SDS011;33280;52.152;21.052;2023-02-28T10:46:47;12.37;;;6.83;;
47539;SDS011;33280;52.152;21.052;2023-02-28T10:49:24;11.30;;;7.17;;
47539;SDS011;33280;52.152;21.052;2023-02-28T10:51:57;12.93;;;6.70;;
47539;SDS011;33280;52.152;21.052;2023-02-28T10:59:41;13.97;;;7.33;;
47539;SDS011;33280;52.152;21.052;2023-02-28T11:05:27;11.97;;;7.47;;
47539;SDS011;33280;52.152;21.052;2023-02-28T11:07:59;10.30;;;7.40;;
47539;SDS011;33280;52.152;21.052;2023-02-28T11:10:45;10.37;;;6.80;;
47539;SDS011;33280;52.152;21.052;2023-02-28T11:13:17;11.53;;;7.77;;
47539;SDS011;33280;52.152;21.052;2023-02-28T11:15:53;13.40;;;7.67;;
47539;SDS011;33280;52.152;21.052;2023-02-28T11:18:24;11.60;;;7.30;;
47539;SDS011;33280;52.152;21.052;2023-02-28T11:21:10;13.53;;;8.00;;
47539;SDS011;33280;52.152;21.052;2023-02-28T11:23:44;14.50;;;7.80;;
47539;SDS011;33280;52.152;21.052;2023-02-28T11:26:34;12.23;;;7.33;;
47539;SDS011;33280;52.152;21.052;2023-02-28T11:29:10;12.77;;;7.90;;
47539;SDS011;33280;52.152;21.052;2023-02-28T11:34:40;13.63;;;8.00;;
47539;SDS011;33280;52.152;21.052;2023-02-28T11:37:12;15.60;;;8.20;;
47539;SDS011;33280;52.152;21.052;2023-02-28T11:39:42;12.17;;;8.10;;
47539;SDS011;33280;52.152;21.052;2023-02-28T11:52:58;13.57;;;8.50;;
47539;SDS011;33280;52.152;21.052;2023-02-28T11:55:38;15.93;;;8.93;;
47539;SDS011;33280;52.152;21.052;2023-02-28T11:58:14;14.87;;;8.80;;
47539;SDS011;33280;52.152;21.052;2023-02-28T12:04:01;13.67;;;8.70;;
47539;SDS011;33280;52.152;21.052;2023-02-28T12:06:55;13.20;;;8.93;;
47539;SDS011;33280;52.152;21.052;2023-02-28T12:09:37;14.90;;;8.50;;
47539;SDS011;33280;52.152;21.052;2023-02-28T12:29:21;16.13;;;9.10;;
47539;SDS011;33280;52.152;21.052;2023-02-28T12:34:44;14.97;;;9.60;;
47539;SDS011;33280;52.152;21.052;2023-02-28T12:37:24;16.23;;;9.30;;
47539;SDS011;33280;52.152;21.052;2023-02-28T12:40:05;18.07;;;9.70;;
47539;SDS011;33280;52.152;21.052;2023-02-28T12:42:39;15.20;;;9.10;;
47539;SDS011;33280;52.152;21.052;2023-02-28T12:45:13;15.20;;;8.97;;
47539;SDS011;33280;52.152;21.052;2023-02-28T12:47:44;12.67;;;8.57;;
47539;SDS011;33280;52.152;21.052;2023-02-28T12:50:16;14.87;;;9.20;;
47539;SDS011;33280;52.152;21.052;2023-02-28T13:07:12;14.60;;;9.70;;
47539;SDS011;33280;52.152;21.052;2023-02-28T13:09:51;14.27;;;9.67;;
47539;SDS011;33280;52.152;21.052;2023-02-28T13:12:26;15.63;;;9.77;;
47539;SDS011;33280;52.152;21.052;2023-02-28T13:15:07;16.77;;;9.90;;
47539;SDS011;33280;52.152;21.052;2023-02-28T13:17:39;15.23;;;10.03;;
47539;SDS011;33280;52.152;21.052;2023-02-28T13:20:17;15.43;;;9.47;;
47539;SDS011;33280;52.152;21.052;2023-02-28T13:22:53;13.57;;;9.17;;
47539;SDS011;33280;52.152;21.052;2023-02-28T13:27:51;14.07;;;8.90;;
47539;SDS011;33280;52.152;21.052;2023-02-28T13:36:11;14.03;;;8.70;;
47539;SDS011;33280;52.152;21.052;2023-02-28T13:38:57;13.40;;;8.37;;
47539;SDS011;33280;52.152;21.052;2023-02-28T13:49:48;13.57;;;8.83;;
47539;SDS011;33280;52.152;21.052;2023-02-28T13:52:21;15.37;;;8.10;;
47539;SDS011;33280;52.152;21.052;2023-02-28T13:57:56;14.07;;;8.60;;
47539;SDS011;33280;52.152;21.052;2023-02-28T14:06:33;15.07;;;8.90;;
47539;SDS011;33280;52.152;21.052;2023-02-28T14:11:54;15.63;;;8.47;;
47539;SDS011;33280;52.152;21.052;2023-02-28T14:20:00;18.63;;;9.00;;
47539;SDS011;33280;52.152;21.052;2023-02-28T14:25:48;16.03;;;9.20;;
47539;SDS011;33280;52.152;21.052;2023-02-28T14:28:43;12.73;;;8.27;;
47539;SDS011;33280;52.152;21.052;2023-02-28T14:31:37;15.37;;;8.73;;
47539;SDS011;33280;52.152;21.052;2023-02-28T14:38:08;13.90;;;8.27;;
47539;SDS011;33280;52.152;21.052;2023-02-28T14:40:43;14.60;;;8.87;;
47539;SDS011;33280;52.152;21.052;2023-02-28T14:43:20;21.03;;;8.73;;
47539;SDS011;33280;52.152;21.052;2023-02-28T14:45:50;16.70;;;9.00;;
47539;SDS011;33280;52.152;21.052;2023-02-28T14:48:20;15.00;;;9.00;;
47539;SDS011;33280;52.152;21.052;2023-02-28T14:50:56;15.03;;;9.30;;
47539;SDS011;33280;52.152;21.052;2023-02-28T14:53:36;15.60;;;9.07;;
47539;SDS011;33280;52.152;21.052;2023-02-28T14:56:04;18.13;;;9.20;;
47539;SDS011;33280;52.152;21.052;2023-02-28T14:58:32;14.60;;;8.93;;
47539;SDS011;33280;52.152;21.052;2023-02-28T15:01:01;18.80;;;9.67;;
47539;SDS011;33280;52.152;21.052;2023-02-28T15:03:31;18.87;;;9.67;;
47539;SDS011;33280;52.152;21.052;2023-02-28T15:06:24;17.13;;;9.20;;
47539;SDS011;33280;52.152;21.052;2023-02-28T15:09:15;16.83;;;8.90;;
47539;SDS011;33280;52.152;21.052;2023-02-28T15:11:48;16.67;;;9.90;;
47539;SDS011;33280;52.152;21.052;2023-02-28T15:14:17;16.50;;;8.97;;
47539;SDS011;33280;52.152;21.052;2023-02-28T15:16:47;14.57;;;8.80;;
47539;SDS011;33280;52.152;21.052;2023-02-28T15:19:31;18.30;;;9.43;;
47539;SDS011;33280;52.152;21.052;2023-02-28T15:22:02;19.63;;;9.50;;
47539;SDS011;33280;52.152;21.052;2023-02-28T15:24:46;18.07;;;9.60;;
47539;SDS011;33280;52.152;21.052;2023-02-28T15:27:19;17.50;;;9.77;;
47539;SDS011;33280;52.152;21.052;2023-02-28T15:29:57;17.40;;;8.80;;
47539;SDS011;33280;52.152;21.052;2023-02-28T15:40:49;19.53;;;9.67;;
47539;SDS011;33280;52.152;21.052;2023-02-28T15:43:27;18.83;;;9.47;;
47539;SDS011;33280;52.152;21.052;2023-02-28T15:46:01;15.60;;;9.23;;
47539;SDS011;33280;52.152;21.052;2023-02-28T15:48:31;17.20;;;9.67;;
47539;SDS011;33280;52.152;21.052;2023-02-28T15:51:12;15.27;;;8.63;;
47539;SDS011;33280;52.152;21.052;2023-02-28T15:54:05;15.47;;;9.00;;
47539;SDS011;33280;52.152;21.052;2023-02-28T15:56:35;15.53;;;8.50;;
47539;SDS011;33280;52.152;21.052;2023-02-28T15:59:15;17.03;;;8.93;;
47539;SDS011;33280;52.152;21.052;2023-02-28T16:01:46;16.00;;;8.83;;
47539;SDS011;33280;52.152;21.052;2023-02-28T16:06:41;16.03;;;8.83;;
47539;SDS011;33280;52.152;21.052;2023-02-28T16:09:13;16.07;;;8.40;;
47539;SDS011;33280;52.152;21.052;2023-02-28T16:11:45;16.87;;;9.50;;
47539;SDS011;33280;52.152;21.052;2023-02-28T16:14:18;17.03;;;9.33;;
47539;SDS011;33280;52.152;21.052;2023-02-28T16:16:55;23.17;;;10.13;;
47539;SDS011;33280;52.152;21.052;2023-02-28T16:19:28;19.87;;;10.13;;
47539;SDS011;33280;52.152;21.052;2023-02-28T16:21:55;20.37;;;10.07;;
47539;SDS011;33280;52.152;21.052;2023-02-28T16:24:22;21.73;;;10.27;;
47539;SDS011;33280;52.152;21.052;2023-02-28T16:26:49;17.67;;;9.33;;
47539;SDS011;33280;52.152;21.052;2023-02-28T16:29:21;15.17;;;9.27;;
47539;SDS011;33280;52.152;21.052;2023-02-28T16:31:52;22.00;;;10.30;;
47539;SDS011;33280;52.152;21.052;2023-02-28T16:34:20;20.23;;;10.57;;
47539;SDS011;33280;52.152;21.052;2023-02-28T16:36:48;21.20;;;10.50;;
47539;SDS011;33280;52.152;21.052;2023-02-28T16:39:15;19.60;;;10.60;;
47539;SDS011;33280;52.152;21.052;2023-02-28T16:41:43;21.53;;;10.43;;
47539;SDS011;33280;52.152;21.052;2023-02-28T16:44:13;19.23;;;9.90;;
47539;SDS011;33280;52.152;21.052;2023-02-28T16:46:49;21.63;;;10.07;;
47539;SDS011;33280;52.152;21.052;2023-02-28T16:49:22;23.50;;;9.97;;
47539;SDS011;33280;52.152;21.052;2023-02-28T16:51:54;19.77;;;9.80;;
47539;SDS011;33280;52.152;21.052;2023-02-28T16:54:21;20.13;;;10.43;;
47539;SDS011;33280;52.152;21.052;2023-02-28T16:56:48;20.90;;;10.87;;
47539;SDS011;33280;52.152;21.052;2023-02-28T16:59:18;20.93;;;10.67;;
47539;SDS011;33280;52.152;21.052;2023-02-28T17:01:48;20.23;;;10.60;;
47539;SDS011;33280;52.152;21.052;2023-02-28T17:04:16;20.83;;;10.50;;
47539;SDS011;33280;52.152;21.052;2023-02-28T17:06:43;22.00;;;10.77;;
47539;SDS011;33280;52.152;21.052;2023-02-28T17:09:14;22.53;;;10.63;;
47539;SDS011;33280;52.152;21.052;2023-02-28T17:11:49;26.07;;;11.33;;
47539;SDS011;33280;52.152;21.052;2023-02-28T17:14:16;24.47;;;10.87;;